Nearby METAR Reports

 

KICL - Clarinda, Iowa, USA
Distance from station: N 49mi, 79km
Updated: Mon, 20-May-2019 6:15am CDT
Few Clouds
Few Clouds
 Wind from NNE
Wind: NNE 6 mph , 9 km/h
Temperature: 43°F , 6°C
Wind Chill: 39°F , 4°C
Dew Point: 39°F , 4°C
Humidity: 87%
Barometer: 30.12 inHg , 1020 hPa
Clouds: Few Clouds
Visibility: 10 miles , 16 km
Cloud details: Few Clouds 1400 ft
Few Clouds 12000 ft
2019/05/20 11:15 KICL 201115Z AUTO 02005KT 10SM FEW014 FEW120 06/04 A3012 RMK AO2
KDSM - Des Moines, Iowa, USA
Distance from station: NNE 122mi, 196km
Updated: Mon, 20-May-2019 5:54am CDT
Overcast
Overcast
 Wind from N
Wind: N 10 mph , 17 km/h
Temperature: 43°F , 6°C
Wind Chill: 37°F , 3°C
Dew Point: 34°F , 1°C
Humidity: 71%
Barometer: 30.09 inHg , 1019 hPa
Clouds: Overcast
Visibility: 10 miles , 16 km
Cloud details: Overcast 1800 ft
2019/05/20 10:54 KDSM 201054Z 01009KT 10SM OVC018 06/01 A3009 RMK AO2 SLP193 T00560011
KFNB - Falls City, Nebraska, USA
Distance from station: W 50mi, 80km
Updated: Mon, 20-May-2019 5:53am CDT
Clear
Clear
 Wind from NNE
Wind: NNE 6 mph , 9 km/h
Temperature: 46°F , 8°C
Wind Chill: 43°F , 6°C
Dew Point: 43°F , 6°C
Humidity: 87%
Barometer: 30.08 inHg , 1018.6 hPa
Clouds: Clear
Visibility: 10 miles , 16 km
2019/05/20 10:53 KFNB 201053Z AUTO 02005KT 10SM CLR 08/06 A3008 RMK AO2 SLP187 T00830056 TSNO
 
KMCI - Kansas City, Missouri, USA
Distance from station: S 65mi, 104km
Updated: Mon, 20-May-2019 5:53am CDT
Partly cloudy
Partly cloudy
 Wind from N
Wind: N 6 mph , 9 km/h
Temperature: 46°F , 8°C
Wind Chill: 43°F , 6°C
Dew Point: 41°F , 5°C
Humidity: 82%
Barometer: 30.08 inHg , 1018.6 hPa
Clouds: Partly cloudy
Visibility: 10 miles , 16 km
Cloud details: Partly cloudy 20000 ft
2019/05/20 10:53 KMCI 201053Z 36005KT 10SM SCT200 08/05 A3008 RMK AO2 SLP184 T00780050 $
KOMA - Omaha, Nebraska, USA
Distance from station: NNW 105mi, 169km
Updated: Mon, 20-May-2019 5:52am CDT
Mostly cloudy
Mostly cloudy
 Wind from NNE
Wind: NNE 9 mph , 15 km/h
Temperature: 45°F , 7°C
Wind Chill: 40°F , 4°C
Dew Point: 37°F , 3°C
Humidity: 76%
Barometer: 30.12 inHg , 1020 hPa
Clouds: Mostly cloudy
Visibility: 10 miles , 16 km
Cloud details: Mostly cloudy 1900 ft
2019/05/20 10:52 KOMA 201052Z 02008KT 10SM BKN019 07/03 A3012 RMK AO2 SLP202 T00720033
KRDK - Red Oak, Iowa, USA
Distance from station: N 70mi, 112km
Updated: Mon, 20-May-2019 6:15am CDT
Partly cloudy
Partly cloudy
 Wind from N
Wind: N 8 mph , 13 km/h, Gust: 14 mph , 22 km/h
Temperature: 41°F , 5°C
Wind Chill: 36°F , 2°C
Dew Point: 39°F , 4°C
Humidity: 93%
Barometer: 30.12 inHg , 1020 hPa
Clouds: Partly cloudy
Visibility: 10 miles , 16 km
Cloud details: Few Clouds 1700 ft
Partly cloudy 17000 ft
2019/05/20 11:15 KRDK 201115Z AUTO 36007G12KT 10SM FEW017 SCT170 05/04 A3012 RMK AO2
 
KSTJ - Saint Joseph, Missouri, USA
Distance from station: SW 23mi, 37km
Updated: Mon, 20-May-2019 5:53am CDT
Clear
Clear
 Wind from N
Wind: N 8 mph , 13 km/h
Temperature: 46°F , 8°C
Wind Chill: 42°F , 6°C
Dew Point: 45°F , 7°C
Humidity: 93%
Barometer: 30.09 inHg , 1019 hPa
Clouds: Clear
Visibility: 10 miles , 16 km
2019/05/20 10:53 KSTJ 201053Z AUTO 01007KT 10SM CLR 08/07 A3009 RMK AO2 SLP188 T00780067
KTOP - Topeka, Kansas, USA
Distance from station: SW 85mi, 137km
Updated: Mon, 20-May-2019 5:53am CDT
Clear
Clear
 Wind from NNE
Wind: NNE 3 mph , 6 km/h
Temperature: 46°F , 8°C
Dew Point: 43°F , 6°C
Humidity: 87%
Barometer: 30.07 inHg , 1018.3 hPa
Clouds: Clear
Visibility: 10 miles , 16 km
2019/05/20 10:53 KTOP 201053Z AUTO 03003KT 10SM CLR 08/06 A3007 RMK AO2 SLP182 T00780056 $
KICT - Wichita, Kansas, USA
Distance from station: SW 215mi, 346km
Updated: Mon, 20-May-2019 5:53am CDT
Mostly cloudy
Mostly cloudy
 Wind from ENE
Wind: ENE 16 mph , 26 km/h, Gust: 25 mph , 41 km/h
Temperature: 54°F , 12°C
Dew Point: 45°F , 7°C
Humidity: 72%
Barometer: 29.97 inHg , 1014.9 hPa
Clouds: Mostly cloudy
Visibility: 10 miles , 16 km
Cloud details: Mostly cloudy 4200 ft
Mostly cloudy 25000 ft
2019/05/20 10:53 KICT 201053Z 07014G22KT 10SM BKN042 BKN250 12/07 A2997 RMK AO2 SLP144 T01220072